METAR Data
IDs: Format: Raw Decoded Include TAF

Data at: 0238 UTC 15 Aug 2020

KERV 150235Z AUTO 12004KT 10SM CLR 30/13 A2993 RMK AO2 T03030125
KERV 150215Z AUTO 11004KT 10SM CLR 32/13 A2992 RMK AO2 T03160133
KERV 150155Z AUTO 13004KT 10SM CLR 32/13 A2991 RMK AO2 T03170130
KERV 150135Z AUTO 15006KT 10SM CLR 33/12 A2991 RMK AO2 T03310124
KERV 150115Z AUTO 16008KT 10SM CLR 34/12 A2990 RMK AO2 T03380117
KERV 150055Z AUTO 16008KT 10SM CLR 36/12 A2990 RMK AO2 T03600119
KERV 150035Z AUTO 17009KT 10SM CLR 36/11 A2989 RMK AO2 T03630112
KERV 150015Z AUTO 18010KT 10SM CLR 37/11 A2989 RMK AO2 T03730109
KERV 142355Z AUTO 18008KT 10SM CLR 38/11 A2988 RMK AO2 T03770111 10387 20345
KERV 142335Z AUTO 18010G14KT 10SM CLR 38/11 A2989 RMK AO2 T03800105
KERV 142315Z AUTO 19007KT 10SM CLR 39/10 A2989 RMK AO2 T03870104
KERV 142255Z AUTO 17011KT 10SM CLR 39/10 A2990 RMK AO2 T03870101

KT82 150215Z AUTO 00000KT 10SM CLR 31/11 A2992 RMK AO2 T03070111
KT82 150155Z AUTO 18004KT 10SM CLR 32/11 A2992 RMK AO2 T03150110
KT82 150135Z AUTO 19004KT 10SM CLR 33/11 A2991 RMK AO2 T03310108
KT82 150115Z AUTO 19005KT 10SM CLR 34/11 A2991 RMK AO2 T03410109
KT82 150055Z AUTO 20006KT 10SM CLR 35/11 A2989 RMK AO2 T03530110
KT82 150035Z AUTO 20007KT 10SM CLR 36/10 A2989 RMK AO2 T03610101
KT82 150015Z AUTO 21008KT 10SM CLR 37/10 A2988 RMK AO2 T03670099
KT82 142355Z AUTO 19007KT 10SM CLR 37/10 A2988 RMK AO2 T03710101 10384 20340
KT82 142335Z AUTO 19008KT 10SM CLR 38/10 A2988 RMK AO2 T03760097
KT82 142315Z AUTO 20008KT 10SM CLR 38/09 A2989 RMK AO2 T03770090
KT82 142255Z AUTO 18008KT 10SM CLR 38/10 A2989 RMK AO2 T03800098

KJCT 150151Z AUTO 20003KT 10SM CLR 36/15 A2989 RMK AO2 SLP078 T03560150
KJCT 150051Z AUTO 19007KT 10SM CLR 38/14 A2987 RMK AO2 SLP072 T03830144
KJCT 142351Z AUTO 20006KT 10SM CLR 41/15 A2986 RMK AO2 SLP067 T04060150 10417 20356 56014
KJCT 142251Z AUTO 20012G16KT 10SM CLR 41/15 A2987 RMK AO2 SLP069 T04060150

K5C1 150235Z AUTO 18003KT 10SM CLR 30/13 A2993 RMK AO1
K5C1 150215Z AUTO 00000KT 10SM CLR 30/12 A2992 RMK AO1
K5C1 150155Z AUTO 00000KT 10SM CLR 31/12 A2991 RMK AO1
K5C1 150135Z AUTO 19003KT 10SM CLR 32/12 A2991 RMK AO1
K5C1 150115Z AUTO 19004KT 10SM CLR 33/12 A2991 RMK AO1
K5C1 150055Z AUTO 19006KT 10SM CLR 35/12 A2990 RMK AO1
K5C1 150035Z AUTO 19007KT 10SM CLR 35/12 A2989 RMK AO1
K5C1 150015Z AUTO 19005KT 10SM CLR 36/13 A2989 RMK AO1
K5C1 142355Z AUTO 20008KT 10SM CLR 36/12 A2989 RMK AO1
K5C1 142335Z AUTO 19008KT 160V230 10SM CLR 36/12 A2989 RMK AO1
K5C1 142315Z AUTO 18008KT 10SM CLR 36/12 A2990 RMK AO1
K5C1 142255Z AUTO 18010KT 130V200 10SM CLR 37/12 A2990 RMK AO1

KHDO 150151Z AUTO 18006KT 10SM CLR 32/14 A2986 RMK AO2 SLP095 T03170144
KHDO 150051Z AUTO 18008KT 10SM CLR 36/14 A2985 RMK AO2 SLP090 T03560144
KHDO 142351Z AUTO 18009KT 10SM CLR 38/14 A2984 RMK AO2 SLP086 T03830139 10400 20350 56013
KHDO 142251Z AUTO 17010G17KT 10SM CLR 39/14 A2985 RMK AO2 SLP088 T03940139

KUVA 150235Z AUTO 14005KT 10SM CLR 33/14 A2989 RMK AO2 T03250140
KUVA 150215Z AUTO 15004KT 10SM CLR 33/14 A2988 RMK AO2 T03300139
KUVA 150155Z AUTO 16004KT 10SM CLR 34/14 A2988 RMK AO2 T03350137
KUVA 150135Z AUTO 16006KT 10SM CLR 35/14 A2987 RMK AO2 T03460138
KUVA 150115Z AUTO 16007KT 10SM CLR 36/14 A2986 RMK AO2 T03610138
KUVA 150055Z AUTO 15008KT 10SM CLR 37/13 A2985 RMK AO2 T03710128
KUVA 150035Z AUTO 15009KT 10SM CLR 38/13 A2985 RMK AO2 T03800125
KUVA 150015Z AUTO 16009KT 10SM CLR 39/13 A2985 RMK AO2 T03850128
KUVA 142355Z AUTO 15010G15KT 10SM CLR 39/13 A2985 RMK AO2 T03890134 10397 20343
KUVA 142335Z AUTO 16008KT 10SM CLR 39/14 A2985 RMK AO2 T03910136
KUVA 142315Z AUTO 16010G15KT 10SM CLR 39/13 A2985 RMK AO2 T03930134
KUVA 142255Z AUTO 17009KT 10SM CLR 39/13 A2986 RMK AO2 T03920132

KSAT 150151Z 16009KT 10SM CLR 36/15 A2986 RMK AO2 SLP092 T03560150
KSAT 150051Z 14012KT 10SM CLR 37/14 A2985 RMK AO2 SLP086 T03670139
KSAT 142351Z 16011G15KT 10SM CLR 39/13 A2984 RMK AO2 SLP083 T03890128 10400 20350 56014
KSAT 142251Z 16011G15KT 10SM CLR 39/13 A2985 RMK AO2 SLP087 T03940133

KSSF 150153Z 15007KT 10SM CLR 32/16 A2984 RMK AO2 SLP091 T03170161 $
KSSF 150053Z 15009KT 10SM CLR 35/15 A2982 RMK AO2 SLP083 T03500150 $
KSSF 142353Z 14009KT 10SM CLR 38/14 A2981 RMK AO2 SLP079 T03780139 10394 20344 56013 $
KSSF 142253Z 16011G17KT 10SM CLR 38/13 A2982 RMK AO2 SLP082 T03830128 $